Time;durP1;ratioP1;P1;durP2;ratioP2;P2;SDS_P1;SDS_P2;PMS_P1;PMS_P2;Temp;Humidity;BMP_temperature;BMP_pressure;BME280_temperature;BME280_humidity;BME280_pressure;Samples;Min_cycle;Max_cycle;Signal;HPM_P1;HPM_P2
2022/12/15 00:39:16;;;;;;;27.63;17.92;;;-5.90;99.90;;;;;;5069009;28;20059;-38
2022/12/15 00:41:41;;;;;;;23.15;16.60;;;-5.90;99.90;;;;;;5070709;28;20267;-38
2022/12/15 00:44:07;;;;;;;28.08;16.48;;;-5.90;99.90;;;;;;5070810;28;20028;-38
2022/12/15 01:22:09;;;;;;;30.25;18.02;;;-5.90;99.90;;;;;;5067244;28;20093;-38
2022/12/15 01:24:35;;;;;;;26.65;16.83;;;-6.00;99.90;;;;;;5069423;28;20474;-38
2022/12/15 01:27:01;;;;;;;28.33;17.02;;;-5.90;99.90;;;;;;5055208;28;20040;-38
2022/12/15 01:29:26;;;;;;;30.00;17.45;;;-6.00;99.90;;;;;;5070140;28;20037;-38
2022/12/15 01:31:52;;;;;;;38.95;23.67;;;-6.00;99.90;;;;;;5070229;28;20068;-37
2022/12/15 01:34:21;;;;;;;30.45;18.85;;;-6.00;99.90;;;;;;5070389;28;20058;-38
2022/12/15 01:36:47;;;;;;;30.17;18.92;;;-5.90;99.90;;;;;;5067849;28;20044;-38
2022/12/15 01:39:13;;;;;;;27.67;16.80;;;-5.90;99.90;;;;;;5062057;28;20108;-38
2022/12/15 01:41:38;;;;;;;26.55;17.58;;;-5.90;99.90;;;;;;5053791;28;20033;-37
2022/12/15 01:44:22;;;;;;;25.40;17.23;;;-5.90;99.90;;;;;;5070277;28;20032;-38
2022/12/15 01:46:50;;;;;;;27.52;17.65;;;-5.90;99.90;;;;;;5086721;28;20032;-37
2022/12/15 01:49:34;;;;;;;28.92;17.92;;;-5.90;99.90;;;;;;5071263;28;20157;-38
2022/12/15 01:52:04;;;;;;;28.05;16.45;;;-5.90;99.90;;;;;;5069461;28;20056;-38
2022/12/15 01:54:33;;;;;;;24.92;16.58;;;-6.00;99.90;;;;;;5052934;28;20040;-39
2022/12/15 01:57:05;;;;;;;28.55;16.50;;;-6.00;99.90;;;;;;5069876;28;20040;-38
2022/12/15 01:59:39;;;;;;;27.52;15.75;;;-6.00;99.90;;;;;;5068430;28;20460;-39
2022/12/15 02:02:04;;;;;;;;;;;-6.00;99.90;;;;;;5070692;28;20048;-38
2022/12/15 02:04:32;;;;;;;26.17;15.85;;;-6.00;99.90;;;;;;5069775;28;20405;-38
2022/12/15 02:06:58;;;;;;;30.52;17.23;;;-6.00;99.90;;;;;;5066294;28;20029;-38
2022/12/15 02:09:25;;;;;;;27.50;16.50;;;-5.90;99.90;;;;;;5068769;28;20051;-38
2022/12/15 02:12:06;;;;;;;30.45;17.45;;;-5.90;99.90;;;;;;5069883;28;20130;-38
2022/12/15 02:14:55;;;;;;;27.10;16.63;;;-5.90;99.90;;;;;;5070781;28;20063;-38
2022/12/15 02:17:34;;;;;;;27.83;16.98;;;-6.00;99.90;;;;;;5069894;28;20045;-39
2022/12/15 02:20:33;;;;;;;32.63;16.42;;;-6.00;99.90;;;;;;5069780;28;20032;-38
2022/12/15 02:23:14;;;;;;;29.05;17.70;;;-6.00;99.90;;;;;;5070041;28;20033;-38
2022/12/15 02:26:12;;;;;;;27.73;16.52;;;-6.00;99.90;;;;;;5069634;28;20072;-39
2022/12/15 02:28:52;;;;;;;26.40;16.52;;;-6.00;99.90;;;;;;5069579;28;20036;-37
2022/12/15 02:31:48;;;;;;;28.05;16.58;;;-6.00;99.90;;;;;;5065170;28;20033;-37
2022/12/15 02:34:33;;;;;;;35.67;17.90;;;-6.00;99.90;;;;;;5062803;28;20134;-38
2022/12/15 02:37:04;;;;;;;26.25;18.08;;;-6.00;99.90;;;;;;5070961;28;20047;-39
2022/12/15 02:39:30;;;;;;;30.55;18.73;;;-6.00;99.90;;;;;;5068040;28;20117;-38
2022/12/15 02:41:56;;;;;;;32.47;19.08;;;-6.00;99.90;;;;;;5069330;28;20493;-38
2022/12/15 02:44:31;;;;;;;27.63;18.33;;;-5.90;99.90;;;;;;5069784;28;20083;-38
2022/12/15 02:47:15;;;;;;;29.55;17.90;;;-5.90;99.90;;;;;;5063939;28;20543;-38
2022/12/15 02:50:09;;;;;;;23.60;15.55;;;-6.00;99.90;;;;;;5065316;28;20062;-38
2022/12/15 02:53:05;;;;;;;29.75;17.05;;;-6.00;99.90;;;;;;5069516;28;20036;-38
2022/12/15 02:55:47;;;;;;;31.60;16.17;;;-5.90;99.90;;;;;;5064070;28;20548;-38
2022/12/15 02:58:53;;;;;;;29.30;17.85;;;-5.90;99.90;;;;;;5068964;28;20097;-38
2022/12/15 03:01:48;;;;;;;35.80;18.48;;;-5.90;99.90;;;;;;5070295;28;20047;-38
2022/12/15 03:04:15;;;;;;;29.50;17.85;;;-5.90;99.90;;;;;;5069545;28;20036;-38
2022/12/15 03:06:41;;;;;;;27.50;17.75;;;-5.80;99.90;;;;;;5065092;28;20037;-39
2022/12/15 03:09:07;;;;;;;29.67;17.35;;;-5.80;99.90;;;;;;5067958;28;20040;-39
2022/12/15 03:11:34;;;;;;;27.23;17.40;;;-5.80;99.90;;;;;;5072985;28;20146;-38
2022/12/15 03:14:00;;;;;;;30.65;18.88;;;-5.70;99.90;;;;;;5062040;28;20048;-39
2022/12/15 03:16:26;;;;;;;33.90;19.95;;;-5.60;99.90;;;;;;5089276;28;20386;-38
2022/12/15 03:18:51;;;;;;;23.80;16.38;;;-5.60;99.90;;;;;;5069563;28;20171;-38
2022/12/15 03:21:17;;;;;;;29.27;18.15;;;-5.60;99.90;;;;;;5073051;28;20083;-39
2022/12/15 03:23:43;;;;;;;26.63;17.20;;;-5.60;99.90;;;;;;5072803;28;20109;-38
2022/12/15 03:26:09;;;;;;;28.73;18.48;;;-5.60;99.90;;;;;;5073090;28;20448;-38
2022/12/15 03:28:34;;;;;;;29.73;18.10;;;-5.50;99.90;;;;;;5072533;28;20036;-38
2022/12/15 03:31:00;;;;;;;32.90;19.10;;;-5.50;99.90;;;;;;5072549;28;20090;-38
2022/12/15 03:33:26;;;;;;;29.27;18.60;;;-5.50;99.90;;;;;;5072287;28;20079;-38
2022/12/15 03:35:51;;;;;;;28.75;17.67;;;-5.40;99.90;;;;;;5070059;28;20056;-38
2022/12/15 03:38:17;;;;;;;28.63;18.23;;;-5.50;99.90;;;;;;5072795;28;20058;-38
2022/12/15 03:40:43;;;;;;;30.45;16.45;;;-5.50;99.90;;;;;;5071811;28;20045;-38
2022/12/15 03:43:09;;;;;;;25.23;17.02;;;-5.50;99.90;;;;;;5066047;28;20037;-38
2022/12/15 03:45:35;;;;;;;31.63;17.80;;;-5.50;99.90;;;;;;5071780;28;20529;-38
2022/12/15 03:48:00;;;;;;;26.45;16.77;;;-5.50;99.90;;;;;;5071764;28;20032;-38
2022/12/15 03:50:28;;;;;;;25.70;17.10;;;-5.60;99.90;;;;;;5071948;28;20040;-38
2022/12/15 03:53:02;;;;;;;27.20;15.93;;;-5.60;99.90;;;;;;5071992;28;20044;-38
2022/12/15 03:55:28;;;;;;;25.45;15.88;;;-5.60;99.90;;;;;;5071787;28;20040;-38
2022/12/15 03:57:54;;;;;;;25.35;16.77;;;-5.60;99.90;;;;;;5071485;28;20041;-38
2022/12/15 04:00:21;;;;;;;24.60;15.23;;;-5.60;99.90;;;;;;5063603;28;20044;-38
2022/12/15 04:02:48;;;;;;;25.80;17.40;;;-5.70;99.90;;;;;;5073124;28;20049;-38
2022/12/15 04:05:20;;;;;;;34.38;19.00;;;-5.60;99.90;;;;;;5072290;28;20120;-38
2022/12/15 04:07:46;;;;;;;31.08;17.55;;;-5.60;99.90;;;;;;5065335;28;20517;-38
2022/12/15 04:10:12;;;;;;;61.40;31.98;;;-5.70;99.90;;;;;;5067080;28;20036;-38
2022/12/15 04:12:40;;;;;;;42.90;20.67;;;-5.60;99.90;;;;;;5072866;28;20504;-38
2022/12/15 04:15:07;;;;;;;41.90;22.10;;;-5.60;99.90;;;;;;5071868;28;20039;-38
2022/12/15 04:17:34;;;;;;;62.33;31.08;;;-5.60;99.90;;;;;;5072086;28;20036;-38
2022/12/15 04:20:08;;;;;;;30.75;18.25;;;-5.60;99.90;;;;;;5071405;28;20040;-38
2022/12/15 04:22:46;;;;;;;69.30;38.03;;;-5.50;99.90;;;;;;5071737;28;20268;-38
2022/12/15 05:31:54;;;;;;;30.73;17.80;;;-5.60;99.90;;;;;;5065460;28;20044;-38
2022/12/15 05:34:25;;;;;;;28.33;18.33;;;-5.50;99.90;;;;;;5067887;28;20266;-37
2022/12/15 05:36:52;;;;;;;27.48;18.17;;;-5.50;99.90;;;;;;5069553;28;20041;-37
2022/12/15 05:39:18;;;;;;;30.00;18.75;;;-5.50;99.90;;;;;;5069605;28;20111;-38
2022/12/15 05:41:44;;;;;;;27.73;18.98;;;-5.40;99.90;;;;;;5069599;28;20511;-38
2022/12/15 05:44:10;;;;;;;26.60;18.95;;;-5.40;99.90;;;;;;5069596;28;20033;-38
2022/12/15 05:46:36;;;;;;;30.95;18.00;;;-5.40;99.90;;;;;;5066069;28;20043;-38
2022/12/15 05:49:04;;;;;;;34.22;18.88;;;-5.30;99.90;;;;;;5068256;28;20032;-39
2022/12/15 05:51:30;;;;;;;31.15;19.15;;;-5.30;99.90;;;;;;5052437;28;20044;-39
2022/12/15 05:53:55;;;;;;;35.03;21.02;;;-5.20;99.90;;;;;;5066186;28;20064;-37
2022/12/15 05:56:21;;;;;;;28.23;19.58;;;-5.20;99.90;;;;;;5063536;28;20490;-36
2022/12/15 05:58:47;;;;;;;32.28;22.55;;;-5.20;99.90;;;;;;5065814;28;20039;-36
2022/12/15 06:01:17;;;;;;;37.67;24.20;;;-5.20;99.90;;;;;;5073620;28;20450;-36
2022/12/15 06:03:43;;;;;;;28.88;20.05;;;-5.20;99.90;;;;;;5063553;28;20040;-36
2022/12/15 06:06:11;;;;;;;28.73;19.45;;;-5.20;99.90;;;;;;5070113;28;20420;-38
2022/12/15 06:08:39;;;;;;;30.02;20.25;;;-5.20;99.90;;;;;;5066598;28;20040;-38
2022/12/15 06:11:05;;;;;;;30.90;20.08;;;-5.30;99.90;;;;;;5069330;28;20163;-38
2022/12/15 06:13:35;;;;;;;32.63;21.13;;;-5.30;99.90;;;;;;5069644;28;20071;-39
2022/12/15 06:16:04;;;;;;;28.05;19.30;;;-5.30;99.90;;;;;;5074213;28;20076;-36
2022/12/15 06:18:33;;;;;;;28.77;18.20;;;-5.40;99.90;;;;;;5071234;28;20119;-36
2022/12/15 06:21:01;;;;;;;37.50;25.00;;;-5.30;99.90;;;;;;5063990;28;20101;-35
2022/12/15 06:23:27;;;;;;;38.58;26.55;;;-5.30;99.90;;;;;;5068175;28;20404;-37
2022/12/15 06:25:54;;;;;;;33.10;21.40;;;-5.20;99.90;;;;;;5067545;28;20409;-37
2022/12/15 06:28:23;;;;;;;30.38;18.95;;;-5.20;99.90;;;;;;5057706;28;20064;-38
2022/12/15 06:30:54;;;;;;;32.13;20.70;;;-5.20;99.90;;;;;;5069450;28;20051;-38
2022/12/15 06:33:21;;;;;;;31.73;19.73;;;-5.30;99.90;;;;;;5071689;28;20743;-38
2022/12/15 06:35:48;;;;;;;31.30;19.65;;;-5.20;99.90;;;;;;5068012;28;20376;-38
2022/12/15 06:38:14;;;;;;;29.10;17.48;;;-5.20;99.90;;;;;;5068653;28;20470;-39
2022/12/15 06:40:43;;;;;;;27.98;17.48;;;-5.20;99.90;;;;;;5065260;28;20051;-39
2022/12/15 06:43:09;;;;;;;32.13;18.88;;;-5.20;99.90;;;;;;5072427;28;20033;-38
2022/12/15 06:45:35;;;;;;;26.90;16.90;;;-5.20;99.90;;;;;;5056706;28;20401;-38
2022/12/15 06:48:00;;;;;;;29.35;19.08;;;-5.20;99.90;;;;;;5067436;28;20053;-38
2022/12/15 06:50:26;;;;;;;36.28;20.48;;;-5.20;99.90;;;;;;5071421;28;20363;-38
2022/12/15 06:52:52;;;;;;;35.03;21.67;;;-5.20;99.90;;;;;;5067634;28;20036;-38
2022/12/15 06:55:18;;;;;;;29.45;17.75;;;-5.20;99.90;;;;;;5078184;28;20378;-38
2022/12/15 06:57:47;;;;;;;28.20;17.35;;;-5.20;99.90;;;;;;5070178;28;20074;-39
2022/12/15 07:00:14;;;;;;;30.33;18.70;;;-5.20;99.90;;;;;;5051535;28;20048;-38
2022/12/15 07:02:41;;;;;;;29.50;16.95;;;-5.10;99.90;;;;;;5051522;28;20037;-38
2022/12/15 07:05:08;;;;;;;26.55;17.38;;;-5.10;99.90;;;;;;5068525;28;20028;-38
2022/12/15 07:07:34;;;;;;;28.27;17.10;;;-5.10;99.90;;;;;;5059250;28;20112;-38
2022/12/15 07:09:59;;;;;;;26.75;18.23;;;-5.10;99.90;;;;;;5070214;28;20115;-38
2022/12/15 07:12:25;;;;;;;27.85;18.13;;;-5.10;99.90;;;;;;5071148;28;20064;-38
2022/12/15 07:14:51;;;;;;;31.02;21.08;;;-5.10;99.90;;;;;;5072665;28;20036;-38
2022/12/15 07:17:17;;;;;;;34.45;20.33;;;-5.00;99.90;;;;;;5070328;28;20033;-38
2022/12/15 07:19:42;;;;;;;29.92;19.73;;;-5.00;99.90;;;;;;5072787;28;20044;-38
2022/12/15 07:22:08;;;;;;;31.05;20.77;;;-5.00;99.90;;;;;;5072247;28;20041;-38
2022/12/15 07:24:37;;;;;;;26.45;18.35;;;-5.10;99.90;;;;;;5067827;28;20044;-38
2022/12/15 07:27:03;;;;;;;28.13;17.75;;;-5.00;99.90;;;;;;5069762;28;20048;-38
2022/12/15 07:29:28;;;;;;;28.45;18.60;;;-5.10;99.90;;;;;;5066734;28;20036;-38
2022/12/15 07:31:54;;;;;;;28.98;18.95;;;-5.00;99.90;;;;;;5053988;28;20055;-38
2022/12/15 07:34:20;;;;;;;30.70;19.15;;;-5.00;99.90;;;;;;5070841;28;20043;-38
2022/12/15 07:36:46;;;;;;;34.80;19.70;;;-5.00;99.90;;;;;;5066987;28;20490;-38
2022/12/15 07:39:12;;;;;;;31.85;21.30;;;-4.90;99.90;;;;;;5070979;28;20033;-38
2022/12/15 07:41:39;;;;;;;36.28;21.67;;;-4.80;99.90;;;;;;5066131;28;20040;-38
2022/12/15 07:44:05;;;;;;;35.35;22.23;;;-4.80;99.90;;;;;;5070941;28;20033;-38
2022/12/15 07:46:30;;;;;;;31.70;19.58;;;-4.70;99.90;;;;;;5069422;28;20504;-37
2022/12/15 07:48:56;;;;;;;28.80;19.50;;;-4.70;99.90;;;;;;5066447;28;20036;-38
2022/12/15 07:51:22;;;;;;;32.50;20.65;;;-4.70;99.90;;;;;;5070873;28;20036;-37
2022/12/15 07:53:49;;;;;;;31.73;19.60;;;-4.60;99.90;;;;;;5072066;28;20078;-37
2022/12/15 07:56:16;;;;;;;31.02;19.42;;;-4.50;99.90;;;;;;5072482;28;20452;-38
2022/12/15 07:58:42;;;;;;;26.40;18.95;;;-4.50;99.90;;;;;;5068283;28;20119;-38
2022/12/15 08:01:11;;;;;;;34.22;23.50;;;-4.40;99.90;;;;;;5067564;28;20120;-37
2022/12/15 08:03:37;;;;;;;37.65;22.35;;;-4.30;99.90;;;;;;5072499;28;20114;-38
2022/12/15 08:06:08;;;;;;;27.52;18.80;;;-4.30;99.90;;;;;;5072727;28;20111;-38
2022/12/15 08:08:34;;;;;;;28.05;18.45;;;-4.20;99.90;;;;;;5071372;28;20033;-38
2022/12/15 08:11:08;;;;;;;37.03;18.83;;;-4.10;99.90;;;;;;5072012;28;20036;-38
2022/12/15 08:13:34;;;;;;;28.35;18.10;;;-4.10;99.90;;;;;;5071865;28;20097;-38
2022/12/15 08:16:00;;;;;;;31.10;19.20;;;-4.00;99.90;;;;;;5072063;28;20079;-38
2022/12/15 08:18:26;;;;;;;26.80;18.55;;;-3.90;99.90;;;;;;5055143;28;20076;-38
2022/12/15 08:20:52;;;;;;;27.50;18.02;;;-3.90;99.90;;;;;;5054168;28;20056;-38
2022/12/15 08:23:17;;;;;;;27.75;18.42;;;-3.90;99.90;;;;;;5069519;28;20478;-38
2022/12/15 08:25:43;;;;;;;29.17;19.00;;;-3.90;99.90;;;;;;5068448;28;20029;-38
2022/12/15 08:28:09;;;;;;;29.90;19.50;;;-3.80;99.90;;;;;;5064590;28;20566;-37
2022/12/15 08:30:35;;;;;;;31.48;22.80;;;-3.80;99.90;;;;;;5086935;28;20042;-37
2022/12/15 08:33:02;;;;;;;30.48;21.35;;;-3.90;99.90;;;;;;5068363;28;20041;-37
2022/12/15 08:35:28;;;;;;;26.30;17.50;;;-3.80;99.90;;;;;;5070024;28;20075;-37
2022/12/15 08:37:54;;;;;;;31.05;19.85;;;-3.80;99.90;;;;;;5071763;28;20036;-37
2022/12/15 08:40:19;;;;;;;32.25;19.58;;;-3.90;99.90;;;;;;5071053;28;20525;-37
2022/12/15 08:42:45;;;;;;;34.55;23.10;;;-3.90;99.90;;;;;;5071197;28;20048;-37
2022/12/15 08:45:11;;;;;;;30.85;19.55;;;-3.90;99.90;;;;;;5071350;28;20102;-37
2022/12/15 08:47:38;;;;;;;31.65;18.75;;;-3.90;99.90;;;;;;5070748;28;20389;-37
2022/12/15 08:50:06;;;;;;;28.30;17.80;;;-3.90;99.90;;;;;;5070461;28;20135;-38
2022/12/15 08:52:33;;;;;;;32.25;20.08;;;-3.80;99.90;;;;;;5071406;28;20076;-37
2022/12/15 08:54:58;;;;;;;31.23;19.45;;;-3.80;99.90;;;;;;5071466;28;20037;-37
2022/12/15 08:57:25;;;;;;;30.42;20.10;;;-3.70;99.90;;;;;;5071453;28;20036;-37
2022/12/15 08:59:50;;;;;;;29.30;20.73;;;-3.70;99.90;;;;;;5070337;28;20133;-38
2022/12/15 09:02:16;;;;;;;29.50;19.33;;;-3.60;99.90;;;;;;5070775;28;20511;-37
2022/12/15 09:04:44;;;;;;;30.80;20.05;;;-3.60;99.90;;;;;;5068881;28;20497;-37
2022/12/15 09:07:09;;;;;;;33.22;20.90;;;-3.50;99.90;;;;;;5066953;28;20044;-37
2022/12/15 09:09:35;;;;;;;30.92;20.30;;;-3.40;99.90;;;;;;5071116;28;20245;-37
2022/12/15 09:12:01;;;;;;;28.63;20.10;;;-3.30;99.90;;;;;;5066125;28;20037;-37
2022/12/15 09:14:27;;;;;;;31.98;21.00;;;-3.20;99.90;;;;;;5069021;28;20033;-37
2022/12/15 09:16:52;;;;;;;27.73;20.38;;;-3.10;99.90;;;;;;5070423;28;20032;-36
2022/12/15 09:19:18;;;;;;;30.98;21.10;;;-2.90;99.90;;;;;;5064821;28;20033;-37
2022/12/15 09:21:44;;;;;;;34.10;21.67;;;-2.60;99.90;;;;;;5070484;28;20492;-37
2022/12/15 09:24:12;;;;;;;30.48;17.92;;;-2.30;99.90;;;;;;5054059;28;20033;-37
2022/12/15 09:26:39;;;;;;;29.45;20.08;;;-1.90;99.90;;;;;;5067459;28;20582;-36
2022/12/15 09:29:05;;;;;;;24.75;18.42;;;-1.50;99.90;;;;;;5066804;28;20072;-36
2022/12/15 09:31:35;;;;;;;27.05;19.15;;;-1.10;99.90;;;;;;5064477;28;20071;-37
2022/12/15 09:34:01;;;;;;;25.73;18.33;;;-0.90;99.90;;;;;;5069385;28;20051;-37
2022/12/15 09:36:28;;;;;;;23.73;17.55;;;-0.30;99.90;;;;;;5068603;28;20058;-37
2022/12/15 09:38:54;;;;;;;22.35;15.10;;;0.20;99.90;;;;;;5069625;28;20045;-37
2022/12/15 09:41:21;;;;;;;27.45;17.02;;;0.60;99.90;;;;;;5066435;28;20135;-37
2022/12/15 09:43:54;;;;;;;23.73;17.13;;;0.90;99.90;;;;;;5071225;28;20047;-37
2022/12/15 09:46:22;;;;;;;20.40;14.43;;;1.40;99.90;;;;;;5050088;28;20029;-38
2022/12/15 09:48:50;;;;;;;21.30;16.15;;;1.90;99.90;;;;;;5069742;28;20115;-37
2022/12/15 09:51:17;;;;;;;20.45;15.02;;;2.40;99.90;;;;;;5069304;28;20052;-37
2022/12/15 09:53:44;;;;;;;17.92;14.10;;;2.90;99.90;;;;;;5069734;28;20090;-38
2022/12/15 09:56:19;;;;;;;17.40;12.68;;;3.30;99.90;;;;;;5069597;28;20068;-38
2022/12/15 09:59:19;;;;;;;17.92;13.23;;;3.30;99.90;;;;;;5077208;28;20046;-37
2022/12/15 10:01:45;;;;;;;17.30;13.15;;;3.50;99.90;;;;;;5062974;28;20112;-37
2022/12/15 10:04:23;;;;;;;17.80;13.38;;;3.70;99.90;;;;;;5081330;28;20124;-38
2022/12/15 10:06:53;;;;;;;18.73;12.63;;;3.50;99.90;;;;;;5069537;28;20481;-37
2022/12/15 10:09:26;;;;;;;15.30;12.63;;;3.00;99.90;;;;;;5068773;28;20037;-37
2022/12/15 10:12:18;;;;;;;16.20;12.13;;;2.50;99.90;;;;;;5070252;28;20563;-38
2022/12/15 10:15:09;;;;;;;16.15;12.18;;;2.20;99.90;;;;;;5065871;28;20037;-37
2022/12/15 10:17:50;;;;;;;17.20;13.05;;;1.90;99.90;;;;;;5068908;28;20076;-37
2022/12/15 10:20:17;;;;;;;15.98;12.95;;;1.60;99.90;;;;;;5068853;28;20054;-37
2022/12/15 10:22:43;;;;;;;16.25;12.65;;;1.30;99.90;;;;;;5064120;28;20098;-37
2022/12/15 10:25:19;;;;;;;16.88;12.68;;;1.10;99.90;;;;;;5057690;28;20049;-37
2022/12/15 10:28:04;;;;;;;19.95;13.65;;;0.90;99.90;;;;;;5067315;28;20040;-37
2022/12/15 10:30:30;;;;;;;18.02;13.00;;;0.80;99.90;;;;;;5069782;28;20086;-37
2022/12/15 10:33:18;;;;;;;16.80;13.73;;;0.70;99.90;;;;;;5068105;28;20045;-37
2022/12/15 10:35:45;;;;;;;20.98;14.82;;;0.60;99.90;;;;;;5064650;28;20090;-37
2022/12/15 10:38:24;;;;;;;18.45;13.63;;;0.50;99.90;;;;;;5065169;28;20028;-38
2022/12/15 10:41:13;;;;;;;17.35;13.73;;;0.40;99.90;;;;;;5063405;28;20339;-37
2022/12/15 10:43:44;;;;;;;18.23;13.80;;;0.30;99.90;;;;;;5085966;28;20033;-38
2022/12/15 10:46:26;;;;;;;20.65;14.77;;;0.60;99.90;;;;;;5069067;28;20028;-37
2022/12/15 10:48:55;;;;;;;18.73;14.27;;;1.30;99.90;;;;;;5062285;28;20509;-37
2022/12/15 10:51:35;;;;;;;17.55;14.48;;;2.10;99.90;;;;;;5068929;28;20051;-37
2022/12/15 10:54:08;;;;;;;18.80;15.45;;;2.80;99.90;;;;;;5060236;28;20041;-37
2022/12/15 10:56:46;;;;;;;18.65;13.23;;;3.40;99.90;;;;;;5065136;28;20197;-37
2022/12/15 10:59:31;;;;;;;19.95;15.05;;;3.90;99.90;;;;;;5062852;28;20064;-37
2022/12/15 11:02:19;;;;;;;14.30;12.00;;;4.50;99.90;;;;;;5066532;28;20041;-37
2022/12/15 11:04:58;;;;;;;16.17;13.45;;;4.60;99.90;;;;;;5080857;28;20029;-37
2022/12/15 11:07:39;;;;;;;19.38;14.23;;;4.40;99.90;;;;;;5048791;28;20045;-38
2022/12/15 11:10:26;;;;;;;15.43;13.10;;;4.20;99.90;;;;;;5067746;28;20071;-37
2022/12/15 11:13:01;;;;;;;17.45;13.18;;;3.70;99.90;;;;;;5067712;28;20076;-38
2022/12/15 11:15:30;;;;;;;18.92;14.35;;;3.20;99.90;;;;;;5069072;28;20494;-37
2022/12/15 11:18:05;;;;;;;18.48;15.32;;;2.90;99.90;;;;;;5068864;28;20060;-38
2022/12/15 11:20:38;;;;;;;17.40;14.55;;;3.00;99.90;;;;;;5070461;28;20494;-37
2022/12/15 11:24:01;;;;;;;19.48;13.55;;;3.10;99.90;;;;;;5072337;28;20434;-38
2022/12/15 11:26:47;;;;;;;20.40;15.57;;;3.30;99.90;;;;;;5011759;28;20044;-37
2022/12/15 11:29:22;;;;;;;18.02;13.35;;;3.40;99.90;;;;;;4994500;28;20513;-38
2022/12/15 11:31:50;;;;;;;18.42;14.25;;;3.40;99.90;;;;;;5056004;28;20045;-38
2022/12/15 11:34:23;;;;;;;19.55;15.13;;;3.40;99.90;;;;;;5072092;28;20045;-37
2022/12/15 11:37:00;;;;;;;14.93;12.48;;;3.90;99.90;;;;;;5073474;28;20502;-38
2022/12/15 11:39:49;;;;;;;14.38;12.23;;;4.60;99.90;;;;;;5071836;28;20119;-38
2022/12/15 11:42:43;;;;;;;17.92;12.80;;;5.50;99.90;;;;;;5072575;28;20041;-37
2022/12/15 11:45:27;;;;;;;;;;;5.80;99.90;;;;;;5069495;28;20044;-38
2022/12/15 11:48:00;;;;;;;14.18;11.52;;;5.40;99.90;;;;;;5071853;28;19920;-38
2022/12/15 11:50:25;;;;;;;16.20;12.95;;;5.00;99.90;;;;;;5071123;28;20040;-38
2022/12/15 11:53:23;;;;;;;15.57;12.68;;;4.90;99.90;;;;;;5071783;28;20032;-37
2022/12/15 11:55:58;;;;;;;17.17;12.40;;;4.70;99.90;;;;;;5040568;28;20048;-38
2022/12/15 11:58:48;;;;;;;14.27;12.77;;;4.50;99.90;;;;;;5068825;28;20064;-37
2022/12/15 12:01:33;;;;;;;17.58;12.25;;;4.20;99.90;;;;;;5071660;28;20498;-38
2022/12/15 12:04:16;;;;;;;17.30;13.30;;;3.90;99.90;;;;;;5086600;28;20623;-38
2022/12/15 12:06:45;;;;;;;14.55;12.80;;;3.60;99.90;;;;;;5071642;28;20036;-38
2022/12/15 12:09:29;;;;;;;17.08;14.20;;;3.30;99.90;;;;;;5072139;28;20101;-38
2022/12/15 12:12:17;;;;;;;19.80;14.38;;;3.10;99.90;;;;;;5067982;28;20048;-38
2022/12/15 12:14:55;;;;;;;21.25;16.15;;;2.90;99.90;;;;;;5060971;28;20119;-38
2022/12/15 12:17:30;;;;;;;18.50;15.52;;;2.90;99.90;;;;;;5069009;28;20044;-37
2022/12/15 12:20:04;;;;;;;21.13;15.23;;;2.80;99.90;;;;;;5071023;28;20044;-37
2022/12/15 12:22:33;;;;;;;;;;;2.80;99.90;;;;;;5071600;28;20044;-37
2022/12/15 12:25:04;;;;;;;21.00;15.50;;;2.60;99.90;;;;;;5068677;28;20428;-38
2022/12/15 12:27:32;;;;;;;26.52;18.27;;;2.60;99.90;;;;;;5053096;28;20454;-38
2022/12/15 12:30:04;;;;;;;29.17;19.10;;;2.40;99.90;;;;;;5070037;28;20036;-37
2022/12/15 12:32:48;;;;;;;23.85;18.92;;;2.30;99.90;;;;;;5063169;28;20048;-37
2022/12/15 12:35:25;;;;;;;;;;;2.20;99.90;;;;;;5061434;28;20044;-37
2022/12/15 12:37:58;;;;;;;21.10;15.70;;;2.10;99.90;;;;;;5068134;28;19956;-37
2022/12/15 12:40:39;;;;;;;23.75;16.38;;;2.00;99.90;;;;;;5067499;28;20040;-37
2022/12/15 12:43:25;;;;;;;20.85;16.80;;;2.00;99.90;;;;;;5081549;28;20108;-37
2022/12/15 12:45:57;;;;;;;21.60;16.45;;;2.20;99.90;;;;;;5057155;28;20037;-37
2022/12/15 12:48:42;;;;;;;20.77;16.80;;;2.80;99.90;;;;;;5065840;28;20482;-37
2022/12/15 12:51:24;;;;;;;18.65;15.23;;;3.10;99.90;;;;;;5083170;28;20429;-37
2022/12/15 12:53:50;;;;;;;20.90;17.10;;;3.30;99.90;;;;;;5070801;28;20060;-37
2022/12/15 12:56:30;;;;;;;22.90;17.27;;;3.20;99.90;;;;;;5065595;28;20486;-37
2022/12/15 12:58:56;;;;;;;28.80;19.48;;;3.10;99.90;;;;;;5071742;28;20041;-37
2022/12/15 13:01:31;;;;;;;25.70;17.60;;;2.90;99.90;;;;;;5072068;28;20040;-37
2022/12/15 13:04:28;;;;;;;24.95;18.30;;;2.80;99.90;;;;;;5070789;28;20037;-37
2022/12/15 13:06:54;;;;;;;19.70;15.38;;;2.80;99.90;;;;;;5071118;28;20489;-37
2022/12/15 13:09:36;;;;;;;20.35;15.52;;;2.70;99.90;;;;;;5051712;28;20045;-37
2022/12/15 13:12:02;;;;;;;20.30;15.18;;;2.60;99.90;;;;;;5071287;28;20256;-37
2022/12/15 13:14:57;;;;;;;22.60;15.85;;;2.60;99.90;;;;;;5072369;28;20102;-36
2022/12/15 13:17:29;;;;;;;24.73;17.63;;;2.70;99.90;;;;;;5087577;28;20041;-37
2022/12/15 13:19:57;;;;;;;23.13;16.23;;;2.70;99.90;;;;;;5070623;28;20105;-37
2022/12/15 13:22:38;;;;;;;21.45;16.67;;;2.70;99.90;;;;;;5070495;28;20044;-37
2022/12/15 13:25:32;;;;;;;23.00;16.98;;;2.60;99.90;;;;;;5070402;28;20040;-37
2022/12/15 13:28:01;;;;;;;24.35;16.88;;;2.60;99.90;;;;;;5082074;28;20086;-36
2022/12/15 13:30:27;;;;;;;25.10;18.20;;;2.60;99.90;;;;;;5071218;28;20033;-37
2022/12/15 13:33:12;;;;;;;20.38;16.92;;;2.90;99.90;;;;;;5071100;28;20500;-37
2022/12/15 13:35:41;;;;;;;21.98;16.58;;;3.30;99.90;;;;;;5062729;28;20504;-38
2022/12/15 13:38:16;;;;;;;21.13;17.45;;;3.60;99.90;;;;;;5070289;28;20501;-37
2022/12/15 13:40:52;;;;;;;20.20;16.50;;;3.80;99.90;;;;;;5061475;28;20105;-37
2022/12/15 13:43:28;;;;;;;21.17;17.05;;;4.10;99.90;;;;;;5078445;28;20085;-38
2022/12/15 13:46:24;;;;;;;19.17;16.15;;;4.20;99.90;;;;;;5047530;28;20064;-37
2022/12/15 13:49:02;;;;;;;22.50;17.00;;;4.30;99.90;;;;;;5067834;28;20456;-37
2022/12/15 13:51:32;;;;;;;24.25;17.50;;;4.20;99.90;;;;;;5084183;28;20116;-37
2022/12/15 13:54:14;;;;;;;23.85;19.33;;;4.00;99.90;;;;;;5067039;28;20441;-37
2022/12/15 13:56:44;;;;;;;28.50;21.33;;;3.70;99.90;;;;;;5084391;28;20467;-37
2022/12/15 13:59:24;;;;;;;24.23;19.75;;;3.40;99.90;;;;;;5070972;28;20039;-37
2022/12/15 14:01:51;;;;;;;24.70;18.67;;;3.20;99.90;;;;;;5071583;28;20086;-38
2022/12/15 14:04:19;;;;;;;25.42;18.85;;;3.00;99.90;;;;;;5070210;28;20086;-37
2022/12/15 14:06:48;;;;;;;22.70;18.25;;;2.80;99.90;;;;;;5064955;28;20115;-37
2022/12/15 14:09:18;;;;;;;30.92;25.77;;;2.60;99.90;;;;;;5053638;28;20427;-37
2022/12/15 14:11:45;;;;;;;34.25;24.58;;;2.40;99.90;;;;;;5066170;28;20169;-37
2022/12/15 14:14:21;;;;;;;27.58;20.75;;;2.30;99.90;;;;;;5082295;28;20036;-37
2022/12/15 14:16:55;;;;;;;30.05;22.77;;;2.10;99.90;;;;;;5084423;28;20040;-37
2022/12/15 14:19:21;;;;;;;32.13;22.38;;;1.90;99.90;;;;;;5051339;28;20071;-37
2022/12/15 14:21:55;;;;;;;32.13;21.98;;;1.80;99.90;;;;;;5068868;28;20040;-36
2022/12/15 14:24:27;;;;;;;30.33;21.63;;;1.70;99.90;;;;;;5070164;28;20505;-36
2022/12/15 14:26:54;;;;;;;30.27;22.05;;;1.60;99.90;;;;;;5069063;28;20117;-36
2022/12/15 14:29:20;;;;;;;30.90;24.00;;;1.40;99.90;;;;;;5062298;28;20479;-36
2022/12/15 14:31:54;;;;;;;32.17;23.50;;;1.40;99.90;;;;;;5069042;28;20497;-37
2022/12/15 14:34:28;;;;;;;29.67;24.10;;;1.30;99.90;;;;;;5069183;28;20037;-37
2022/12/15 14:36:57;;;;;;;36.45;23.52;;;1.20;99.90;;;;;;5069880;28;20555;-36
2022/12/15 14:39:29;;;;;;;31.02;24.13;;;1.10;99.90;;;;;;5065787;28;20041;-37
2022/12/15 14:41:56;;;;;;;32.60;24.52;;;1.10;99.90;;;;;;5069695;28;20048;-37
2022/12/15 14:44:36;;;;;;;34.45;26.30;;;1.00;99.90;;;;;;5069189;28;20024;-37
2022/12/15 14:47:05;;;;;;;33.05;24.02;;;0.90;99.90;;;;;;5070502;28;20041;-37
2022/12/15 14:49:43;;;;;;;29.08;23.73;;;0.80;99.90;;;;;;5066117;28;20068;-37
2022/12/15 14:52:31;;;;;;;33.30;23.77;;;0.80;99.90;;;;;;5069544;28;20516;-36
2022/12/15 14:55:18;;;;;;;29.85;23.63;;;0.70;99.90;;;;;;5070582;28;20412;-37
2022/12/15 14:57:45;;;;;;;31.35;23.85;;;0.60;99.90;;;;;;5081970;28;20506;-36
2022/12/15 15:00:32;;;;;;;34.92;25.83;;;0.60;99.90;;;;;;5073702;28;20043;-37
2022/12/15 15:03:17;;;;;;;30.75;23.40;;;0.50;99.90;;;;;;5058970;28;20695;-36
2022/12/15 15:06:00;;;;;;;32.17;24.73;;;0.50;99.90;;;;;;5059674;28;20249;-35
2022/12/15 15:08:34;;;;;;;30.73;24.55;;;0.50;99.90;;;;;;5073569;28;20047;-35
2022/12/15 15:11:02;;;;;;;;;;;0.40;99.90;;;;;;5073771;28;20049;-34
2022/12/15 15:13:39;;;;;;;32.42;22.73;;;0.40;99.90;;;;;;5073089;28;19916;-36
2022/12/15 15:16:12;;;;;;;34.42;24.15;;;0.40;99.90;;;;;;5072430;28;20066;-35
2022/12/15 15:18:38;;;;;;;34.95;24.00;;;0.20;99.90;;;;;;5072439;28;20044;-35